Dauntless Aviation
Airports North America United States Colorado
98CO

NCMC HELIPORT

GREELEY, CO, USA

Airport Info
Suggest Updated Information for this Airport

Location

Latitude / Longitude: 40°24'53"N / 104°42'39"W
  40°24.8908'N / 104°42.6508'W
  40.4148 / -104.7108
Elevation: 4882.0 ft. (estimated)
Variation: 12E (1985)
From city: 00 miles N of GREELEY, CO

Operations

Facility use: Private
Sectional chart: DENVER
Control tower: no
Boundary ARTCC: DENVER
FSS: DENVER [1-800-WX-BRIEF]
Segmented circle: no

Communications

Nearby radio navigation aids

VOR radial/distance VOR name Freq Var
GLL 234oT/9.0 GILL VORTAC 114.20 13E
DVV 353oT/31.5 MILE HIGH VORTAC 114.70 11E
BJC 33oT/36.0 JEFFCO VOR/DME 115.40 11E
DEN 356oT/36.2 DENVER VOR/DME 117.90 11E
 
NDB name Hdg/Dist Freq Var ID

Services

Runway Information

Helipad H1

Dimensions: 40 x 40 ft.
Surface: PORTLAND CEMENT CONCRETE,NO SPECIAL SURFACE TREATMENT
Latitude: 40-24-53.4500N
Longitude: 104-42-39.0500W
Elevation: 4882.0 ft. ft.
 

Additional Remarks

Instrument Procedures

No published instrument procedures available
Topographic chart at:
Satellite photo at:
Airport distance calculator
From:
Weather Reports

METAR

TAF

KDEN
34.0nm SE
KDEN 201459Z 2015/2118 11006KT P6SM FEW020 OVC080 FM201700 13007KT P6SM SCT070 SCT220 FM202200 10008KT P6SM VCSH BKN040 OVC090 PROB30 2100/2104 5SM -SN BKN030 FM210700 16007KT P6SM SCT050 SCT090 FM210900 20009KT P6SM FEW100
KBJC
35.7nm S
KBJC 201356Z 2014/2112 11005KT P6SM SCT020 BKN100 FM201600 VRB05KT P6SM SCT030 SCT100 FM201800 08007KT P6SM SCT050 BKN090 FM202100 11008KT P6SM VCSH BKN040 OVC090 TEMPO 2022/2102 5SM -SN BKN030 FM210500 16007KT P6SM SCT050 SCT090 FM210800 23006KT P6SM FEW100
Safelog

 

Dauntless Aviation

© 2007-2018 Dauntless Aviation, all rights reserved
Information provided via PilotNav comes from a variety of official and unofficial data sources. As errors are possible, do not use PilotNav for primary flight planning purposes. Verify any information that you receive via PilotNav with current and canonical charts and other official documents. The material in this database is subject to database copyrights held by Dauntless Aviation and may not be copied without the express permission of Dauntless Aviation - licenses for use of part of all of this data are available for purchase; enquire via the Dauntless Aviation helpdesk. A number of mechanisms and markers exist in the database to protect against and identify infringement / copyright. Automated queries against this website are stictly prohibited, and all activity is logged and analyzed.